Time;durP1;ratioP1;P1;durP2;ratioP2;P2;SDS_P1;SDS_P2;PMS_P1;PMS_P2;Temp;Humidity;BMP_temperature;BMP_pressure;BME280_temperature;BME280_humidity;BME280_pressure;Samples;Min_cycle;Max_cycle;Signal;HPM_P1;HPM_P2
2022/11/13 00:00:39;;;;;;;;;;;;;;;;;;2071421;28;20057;-93
2022/11/13 00:01:40;;;;;;;7.40;4.50;;;;;;;;;;2068373;28;19918;-93
2022/11/13 00:02:40;;;;;;;7.82;4.97;;;;;;;;;;2064816;28;20022;-92
2022/11/13 00:03:41;;;;;;;;;;;;;;;;;;2070026;28;20026;-92
2022/11/13 00:04:46;;;;;;;6.83;4.30;;;;;;;;;;2070219;28;19920;-93
2022/11/13 00:05:47;;;;;;;6.18;4.22;;;;;;;;;;2069865;28;20023;-93
2022/11/13 00:06:47;;;;;;;;;;;;;;;;;;2065119;28;20062;-92
2022/11/13 00:07:48;;;;;;;7.93;5.00;;;;;;;;;;2064402;28;19921;-93
2022/11/13 00:08:51;;;;;;;;;;;;;;;;;;2011984;28;20112;-94
2022/11/13 00:09:53;;;;;;;8.32;4.15;;;;;;;;;;2072820;28;19909;-92
2022/11/13 00:11:04;;;;;;;7.93;4.32;;;;;;;;;;2064828;28;20451;-93
2022/11/13 00:12:05;;;;;;;6.47;4.25;;;;;;;;;;1601595;28;10003148;-92
2022/11/13 00:13:05;;;;;;;6.47;4.80;;;;;;;;;;2068536;28;20042;-93
2022/11/13 00:14:05;;;;;;;;;;;;;;;;;;2065913;28;20033;-93
2022/11/13 00:15:06;;;;;;;5.83;4.53;;;;;;;;;;2069415;28;20047;-92
2022/11/13 00:16:09;;;;;;;;;;;;;;;;;;2070526;28;20390;-91
2022/11/13 00:17:09;;;;;;;7.15;4.35;;;;;;;;;;2064726;28;19917;-91
2022/11/13 00:18:09;;;;;;;;;;;;;;;;;;2073268;28;20124;-91
2022/11/13 00:19:10;;;;;;;7.50;4.20;;;;;;;;;;2072820;28;20384;-90
2022/11/13 00:20:10;;;;;;;;;;;;;;;;;;2072972;28;20129;-90
2022/11/13 00:21:15;;;;;;;8.40;4.97;;;;;;;;;;2064370;28;20052;-90
2022/11/13 00:22:15;;;;;;;8.05;4.40;;;;;;;;;;2064728;28;20473;-92
2022/11/13 00:23:15;;;;;;;;;;;;;;;;;;2064709;28;20034;-92
2022/11/13 00:24:16;;;;;;;7.43;4.47;;;;;;;;;;2064552;28;19936;-92
2022/11/13 00:25:16;;;;;;;8.05;4.88;;;;;;;;;;2072509;28;20030;-92
2022/11/13 00:26:19;;;;;;;8.95;4.93;;;;;;;;;;2072397;28;20088;-92
2022/11/13 00:27:20;;;;;;;7.43;4.57;;;;;;;;;;2072102;28;20477;-93
2022/11/13 00:28:20;;;;;;;;;;;;;;;;;;2064642;28;20038;-91
2022/11/13 00:29:21;;;;;;;6.78;4.07;;;;;;;;;;1708971;28;10314853;-92
2022/11/13 00:30:21;;;;;;;;;;;;;;;;;;2064919;28;20046;-92
2022/11/13 00:31:22;;;;;;;7.17;4.93;;;;;;;;;;2064941;28;19928;-92
2022/11/13 00:32:22;;;;;;;6.75;4.68;;;;;;;;;;2072209;28;20057;-91
2022/11/13 00:33:23;;;;;;;;;;;;;;;;;;2072933;28;20026;-92
2022/11/13 00:34:23;;;;;;;10.97;5.00;;;;;;;;;;2072347;28;20359;-91
2022/11/13 00:35:24;;;;;;;7.28;4.68;;;;;;;;;;2064280;28;20504;-92
2022/11/13 00:36:26;;;;;;;;;;;;;;;;;;2064641;28;20199;-92
2022/11/13 00:37:26;;;;;;;8.07;4.78;;;;;;;;;;1718782;28;10218277;-92
2022/11/13 00:38:26;;;;;;;;;;;;;;;;;;2072823;28;20022;-93
2022/11/13 00:39:29;;;;;;;7.50;4.40;;;;;;;;;;2064191;28;20005;-92
2022/11/13 00:40:29;;;;;;;7.13;5.00;;;;;;;;;;2064576;28;20030;-92
2022/11/13 00:41:30;;;;;;;;;;;;;;;;;;2072609;28;20450;-92
2022/11/13 00:42:30;;;;;;;5.60;3.90;;;;;;;;;;1719301;28;10204791;-92
2022/11/13 00:43:31;;;;;;;6.70;5.30;;;;;;;;;;2063925;28;20030;-92
2022/11/13 00:44:31;;;;;;;;;;;;;;;;;;2064418;28;20033;-89
2022/11/13 00:45:31;;;;;;;7.55;4.25;;;;;;;;;;2072261;28;20072;-91
2022/11/13 00:46:32;;;;;;;;;;;;;;;;;;2072635;28;20037;-92
2022/11/13 00:47:32;;;;;;;6.70;4.90;;;;;;;;;;2072388;28;19944;-92
2022/11/13 00:48:33;;;;;;;7.47;5.22;;;;;;;;;;2064358;28;20026;-91
2022/11/13 00:49:34;;;;;;;9.10;5.00;;;;;;;;;;2067847;28;20014;-91
2022/11/13 00:50:34;;;;;;;;;;;;;;;;;;2074757;28;20035;-91
2022/11/13 00:51:35;;;;;;;6.13;4.30;;;;;;;;;;2065802;28;19981;-91
2022/11/13 00:52:35;;;;;;;8.65;4.57;;;;;;;;;;2068823;28;20034;-92
2022/11/13 00:53:35;;;;;;;;;;;;;;;;;;2074712;28;20022;-91
2022/11/13 00:54:36;;;;;;;6.05;4.18;;;;;;;;;;2069177;28;19983;-92
2022/11/13 00:55:36;;;;;;;;;;;;;;;;;;2073906;28;20045;-92
2022/11/13 00:56:37;;;;;;;7.17;4.93;;;;;;;;;;2072792;28;19947;-92
2022/11/13 00:57:37;;;;;;;;;;;;;;;;;;2064864;28;20559;-93
2022/11/13 00:58:37;;;;;;;9.10;5.30;;;;;;;;;;2073903;28;19984;-91
2022/11/13 00:59:38;;;;;;;7.63;4.75;;;;;;;;;;2064304;28;20030;-91
2022/11/13 01:00:39;;;;;;;9.95;5.75;;;;;;;;;;2063872;28;20031;-91
2022/11/13 01:01:39;;;;;;;9.27;4.65;;;;;;;;;;2072162;28;20430;-92
2022/11/13 01:02:40;;;;;;;;;;;;;;;;;;2072534;28;20064;-92
2022/11/13 01:03:41;;;;;;;8.90;4.77;;;;;;;;;;2072164;28;19980;-90
2022/11/13 01:04:41;;;;;;;;;;;;;;;;;;2072580;28;20076;-90
2022/11/13 01:05:43;;;;;;;8.83;5.27;;;;;;;;;;2071941;28;19921;-92
2022/11/13 01:06:44;;;;;;;10.18;5.03;;;;;;;;;;2071903;28;20049;-93
2022/11/13 01:07:44;;;;;;;;;;;;;;;;;;2072442;28;20030;-93
2022/11/13 01:08:45;;;;;;;7.77;5.07;;;;;;;;;;2072245;28;19914;-92
2022/11/13 01:09:48;;;;;;;;;;;;;;;;;;2064981;28;20104;-92
2022/11/13 01:10:49;;;;;;;7.35;4.50;;;;;;;;;;2069502;28;20044;-91
2022/11/13 01:11:49;;;;;;;;;;;;;;;;;;2082750;28;20026;-92
2022/11/13 01:12:49;;;;;;;8.87;5.00;;;;;;;;;;2082640;28;19924;-92
2022/11/13 01:13:50;;;;;;;;;;;;;;;;;;2072557;28;20034;-92
2022/11/13 01:14:51;;;;;;;8.70;5.57;;;;;;;;;;2074560;28;19909;-92
2022/11/13 01:15:52;;;;;;;8.50;5.53;;;;;;;;;;2074114;28;20488;-91
2022/11/13 01:16:53;;;;;;;14.30;5.95;;;;;;;;;;2072575;28;20091;-92
2022/11/13 01:17:54;;;;;;;;;;;;;;;;;;1766369;28;10001852;-91
2022/11/13 01:18:55;;;;;;;10.10;5.97;;;;;;;;;;2063624;28;19939;-89
2022/11/13 01:19:55;;;;;;;;;;;;;;;;;;2064309;28;20580;-90
2022/11/13 01:21:09;;;;;;;8.73;5.33;;;;;;;;;;2055837;28;19924;-90
2022/11/13 01:22:10;;;;;;;8.52;5.72;;;;;;;;;;2064225;28;20030;-91
2022/11/13 01:23:10;;;;;;;;;;;;;;;;;;2072230;28;20037;-91
2022/11/13 01:24:11;;;;;;;9.15;5.63;;;;;;;;;;2072049;28;20372;-91
2022/11/13 01:25:11;;;;;;;;;;;;;;;;;;2064166;28;20084;-91
2022/11/13 01:26:26;;;;;;;9.20;5.53;;;;;;;;;;1715949;28;10096037;-90
2022/11/13 01:27:27;;;;;;;8.98;5.85;;;;;;;;;;2071664;28;20485;-91
2022/11/13 01:28:27;;;;;;;;;;;;;;;;;;2071937;28;20022;-91
2022/11/13 01:29:28;;;;;;;7.70;5.00;;;;;;;;;;2071630;28;19975;-91
2022/11/13 01:30:28;;;;;;;;;;;;;;;;;;2064014;28;20465;-91
2022/11/13 01:31:29;;;;;;;10.90;5.40;;;;;;;;;;2055524;28;20349;-90
2022/11/13 01:32:30;;;;;;;7.75;5.43;;;;;;;;;;2063638;28;20026;-91
2022/11/13 01:33:31;;;;;;;;;;;;;;;;;;2072012;28;20053;-90
2022/11/13 01:34:31;;;;;;;9.20;5.47;;;;;;;;;;2071549;28;19913;-90
2022/11/13 01:35:31;;;;;;;;;;;;;;;;;;2063970;28;20045;-90
2022/11/13 01:36:32;;;;;;;8.77;5.10;;;;;;;;;;2063502;28;19916;-91
2022/11/13 01:37:32;;;;;;;10.07;5.57;;;;;;;;;;2071688;28;20499;-90
2022/11/13 01:38:33;;;;;;;;;;;;;;;;;;2072132;28;20375;-92
2022/11/13 01:39:33;;;;;;;10.13;5.67;;;;;;;;;;2063540;28;19910;-90
2022/11/13 01:40:34;;;;;;;;;;;;;;;;;;2063995;28;20711;-92
2022/11/13 01:41:35;;;;;;;9.88;5.88;;;;;;;;;;2071451;28;19913;-91
2022/11/13 01:42:35;;;;;;;7.57;5.70;;;;;;;;;;2071807;28;20034;-91
2022/11/13 01:43:37;;;;;;;10.95;5.95;;;;;;;;;;2064119;28;20026;-90
2022/11/13 01:45:24;;;;;;;7.90;5.60;;;;;;;;;;2071579;28;20033;-91
2022/11/13 01:46:33;;;;;;;8.15;5.10;;;;;;;;;;1714993;28;10117996;-91
2022/11/13 01:47:33;;;;;;;10.30;6.05;;;;;;;;;;2064449;28;20412;-90
2022/11/13 01:48:38;;;;;;;;;;;;;;;;;;2071988;28;20026;-91
2022/11/13 01:49:41;;;;;;;8.45;6.07;;;;;;;;;;2071446;28;19917;-90
2022/11/13 01:50:41;;;;;;;10.88;5.78;;;;;;;;;;2063339;28;20113;-91
2022/11/13 01:51:44;;;;;;;;;;;;;;;;;;2063986;28;20030;-91
2022/11/13 01:52:45;;;;;;;9.90;5.88;;;;;;;;;;2063374;28;20428;-90
2022/11/13 01:53:46;;;;;;;;;;;;;;;;;;2063981;28;20033;-90
2022/11/13 01:54:52;;;;;;;8.13;5.10;;;;;;;;;;2071464;28;20602;-91
2022/11/13 01:55:52;;;;;;;8.57;5.45;;;;;;;;;;2071058;28;20277;-93
2022/11/13 01:56:53;;;;;;;;;;;;;;;;;;2071088;28;20579;-91
2022/11/13 01:57:54;;;;;;;10.02;5.63;;;;;;;;;;2071213;28;19917;-92
2022/11/13 01:59:01;;;;;;;;;;;;;;;;;;2071696;28;20034;-91
2022/11/13 02:00:05;;;;;;;10.15;5.90;;;;;;;;;;2070677;28;19953;-93
2022/11/13 02:01:06;;;;;;;8.88;5.65;;;;;;;;;;2063482;28;20041;-92
2022/11/13 02:02:06;;;;;;;;;;;;;;;;;;2071439;28;20550;-92
2022/11/13 02:03:07;;;;;;;10.40;5.70;;;;;;;;;;2071353;28;19909;-91
2022/11/13 02:04:07;;;;;;;;;;;;;;;;;;2072110;28;20033;-93
2022/11/13 02:05:08;;;;;;;9.30;5.43;;;;;;;;;;2071175;28;19910;-93
2022/11/13 02:06:08;;;;;;;8.35;5.30;;;;;;;;;;1717592;28;10233914;-92
2022/11/13 02:07:10;;;;;;;;;;;;;;;;;;2063742;28;20045;-92
2022/11/13 02:08:10;;;;;;;10.00;5.40;;;;;;;;;;2063565;28;19909;-92
2022/11/13 02:09:12;;;;;;;10.15;5.63;;;;;;;;;;2071619;28;20030;-92
2022/11/13 02:10:13;;;;;;;9.50;5.78;;;;;;;;;;2071916;28;20024;-92
2022/11/13 02:11:13;;;;;;;;;;;;;;;;;;2071987;28;20113;-92
2022/11/13 02:12:19;;;;;;;8.70;5.37;;;;;;;;;;2071759;28;20005;-92
2022/11/13 02:13:20;;;;;;;8.00;5.20;;;;;;;;;;2071808;28;20029;-92
2022/11/13 02:14:24;;;;;;;9.95;6.15;;;;;;;;;;2071654;28;20022;-92
2022/11/13 02:15:25;;;;;;;9.88;5.35;;;;;;;;;;2071887;28;20092;-92
2022/11/13 02:16:26;;;;;;;10.55;4.90;;;;;;;;;;2071468;28;20026;-92
2022/11/13 02:17:32;;;;;;;9.95;5.38;;;;;;;;;;2071646;28;20064;-91
2022/11/13 02:18:35;;;;;;;11.45;6.07;;;;;;;;;;2071777;28;20083;-92
2022/11/13 02:19:49;;;;;;;9.60;6.05;;;;;;;;;;2071712;28;20145;-93
2022/11/13 02:21:04;;;;;;;11.32;6.90;;;;;;;;;;1820273;28;10187711;-92
2022/11/13 02:22:37;;;;;;;9.73;5.70;;;;;;;;;;2063716;28;20358;-92
2022/11/13 02:23:46;;;;;;;8.50;5.22;;;;;;;;;;2059510;28;20097;-92
2022/11/13 02:24:47;;;;;;;8.82;5.95;;;;;;;;;;2064383;28;20034;-92
2022/11/13 02:25:51;;;;;;;;;;;;;;;;;;2063889;28;20030;-92
2022/11/13 02:26:55;;;;;;;8.30;5.25;;;;;;;;;;2063585;28;19953;-91
2022/11/13 02:27:55;;;;;;;8.98;5.85;;;;;;;;;;2064418;28;20108;-91
2022/11/13 02:28:56;;;;;;;;;;;;;;;;;;2064233;28;20084;-91
2022/11/13 02:29:56;;;;;;;8.10;5.50;;;;;;;;;;2071674;28;19968;-91
2022/11/13 02:30:57;;;;;;;11.10;6.65;;;;;;;;;;2072754;28;20109;-91
2022/11/13 02:31:57;;;;;;;9.95;5.97;;;;;;;;;;2073013;28;20049;-91
2022/11/13 02:32:58;;;;;;;;;;;;;;;;;;2073544;28;20030;-92
2022/11/13 02:34:01;;;;;;;11.30;7.18;;;;;;;;;;2064995;28;19918;-91
2022/11/13 02:35:01;;;;;;;10.77;6.07;;;;;;;;;;2064760;28;20080;-92
2022/11/13 02:36:03;;;;;;;;;;;;;;;;;;2065414;28;20038;-92
2022/11/13 02:37:03;;;;;;;10.10;6.25;;;;;;;;;;2073097;28;19913;-91
2022/11/13 02:38:05;;;;;;;8.55;5.60;;;;;;;;;;1723586;28;10101757;-90
2022/11/13 02:39:09;;;;;;;8.80;5.85;;;;;;;;;;2072948;28;20116;-92
2022/11/13 02:40:10;;;;;;;11.02;6.60;;;;;;;;;;2073061;28;20057;-91
2022/11/13 02:41:10;;;;;;;;;;;;;;;;;;2073320;28;20480;-90
2022/11/13 02:42:11;;;;;;;9.30;5.97;;;;;;;;;;2072801;28;19913;-91
2022/11/13 02:43:11;;;;;;;;;;;;;;;;;;2065263;28;20434;-91
2022/11/13 02:44:11;;;;;;;10.15;6.38;;;;;;;;;;2065002;28;20053;-91
2022/11/13 02:45:12;;;;;;;12.10;6.75;;;;;;;;;;2072825;28;20025;-91
2022/11/13 02:46:12;;;;;;;;;;;;;;;;;;2073498;28;20013;-92
2022/11/13 02:47:13;;;;;;;9.80;5.57;;;;;;;;;;2072925;28;20085;-91
2022/11/13 02:48:13;;;;;;;11.75;7.53;;;;;;;;;;2064773;28;20117;-91
2022/11/13 02:49:13;;;;;;;;;;;;;;;;;;1719573;28;10161609;-93
2022/11/13 02:50:15;;;;;;;14.83;6.77;;;;;;;;;;2073285;28;19937;-93
2022/11/13 02:51:16;;;;;;;11.63;6.90;;;;;;;;;;2064814;28;20030;-92
2022/11/13 02:52:16;;;;;;;;;;;;;;;;;;2065149;28;20684;-92
2022/11/13 02:53:16;;;;;;;10.87;6.57;;;;;;;;;;2072941;28;19931;-93
2022/11/13 02:54:17;;;;;;;9.07;6.78;;;;;;;;;;2064670;28;20120;-91
2022/11/13 02:55:17;;;;;;;;;;;;;;;;;;2065065;28;20081;-92
2022/11/13 02:56:17;;;;;;;11.90;6.77;;;;;;;;;;2072983;28;19924;-93
2022/11/13 02:57:18;;;;;;;;;;;;;;;;;;2065145;28;20102;-92
2022/11/13 02:58:18;;;;;;;9.93;5.77;;;;;;;;;;2065275;28;19971;-92
2022/11/13 02:59:19;;;;;;;;;;;;;;;;;;2065944;28;20466;-93
2022/11/13 03:00:19;;;;;;;10.57;6.67;;;;;;;;;;2065755;28;20300;-94
2022/11/13 03:01:20;;;;;;;12.25;7.43;;;;;;;;;;2073083;28;20029;-93
2022/11/13 03:02:20;;;;;;;11.98;6.22;;;;;;;;;;2072735;28;20025;-93
2022/11/13 03:03:21;;;;;;;;;;;;;;;;;;2065288;28;20026;-92
2022/11/13 03:04:21;;;;;;;12.63;6.93;;;;;;;;;;2065041;28;19913;-94
2022/11/13 03:05:22;;;;;;;11.43;6.93;;;;;;;;;;2072983;28;20065;-93
2022/11/13 03:06:22;;;;;;;;;;;;;;;;;;2073488;28;20100;-93
2022/11/13 03:07:23;;;;;;;10.50;6.80;;;;;;;;;;2072988;28;19916;-94
2022/11/13 03:08:24;;;;;;;10.65;6.57;;;;;;;;;;2073211;28;20554;-93
2022/11/13 03:09:25;;;;;;;11.75;6.50;;;;;;;;;;2064901;28;20030;-93
2022/11/13 03:10:25;;;;;;;;;;;;;;;;;;2065235;28;20430;-93
2022/11/13 03:11:25;;;;;;;13.53;7.43;;;;;;;;;;2065209;28;19952;-92
2022/11/13 03:13:41;;;;;;;10.88;6.40;;;;;;;;;;2325764;23;19915;-90
2022/11/13 03:14:42;;;;;;;;;;;;;;;;;;2040835;29;20643;-92
2022/11/13 03:15:43;;;;;;;14.47;7.37;;;;;;;;;;2040680;29;19955;-92
2022/11/13 03:16:43;;;;;;;;;;;;;;;;;;2041194;29;20038;-92
2022/11/13 03:17:44;;;;;;;11.13;7.30;;;;;;;;;;2040985;29;20329;-92
2022/11/13 03:18:44;;;;;;;14.57;6.45;;;;;;;;;;2048927;29;20034;-92
2022/11/13 03:19:44;;;;;;;;;;;;;;;;;;2041282;29;20019;-92
2022/11/13 03:20:45;;;;;;;11.18;7.07;;;;;;;;;;2033050;29;20349;-91
2022/11/13 03:21:45;;;;;;;;;;;;;;;;;;2049088;29;20073;-91
2022/11/13 03:22:46;;;;;;;12.13;7.30;;;;;;;;;;2040812;29;20001;-93
2022/11/13 03:23:46;;;;;;;11.00;7.53;;;;;;;;;;2040543;29;20031;-91
2022/11/13 03:24:46;;;;;;;12.35;7.13;;;;;;;;;;2040491;29;20079;-91
2022/11/13 03:25:47;;;;;;;;;;;;;;;;;;2032990;29;20076;-91
2022/11/13 03:26:47;;;;;;;12.20;7.35;;;;;;;;;;2040712;29;19922;-91
2022/11/13 03:27:48;;;;;;;11.57;6.68;;;;;;;;;;2040627;29;20043;-91
2022/11/13 03:28:48;;;;;;;;;;;;;;;;;;2033009;29;20180;-91
2022/11/13 03:29:49;;;;;;;14.80;7.80;;;;;;;;;;2032742;29;20251;-90
2022/11/13 03:30:49;;;;;;;;;;;;;;;;;;2040978;29;20040;-90
2022/11/13 03:31:49;;;;;;;10.95;6.78;;;;;;;;;;2048634;29;19916;-92
2022/11/13 03:32:56;;;;;;;13.80;7.45;;;;;;;;;;2040593;29;20047;-91
2022/11/13 03:33:56;;;;;;;14.10;7.43;;;;;;;;;;2041034;29;20024;-91
2022/11/13 03:34:57;;;;;;;;;;;;;;;;;;2049916;28;20012;-92
2022/11/13 03:35:57;;;;;;;11.97;7.13;;;;;;;;;;2050973;28;19907;-91
2022/11/13 03:36:57;;;;;;;;;;;;;;;;;;2051029;28;20012;-91
2022/11/13 03:37:58;;;;;;;13.13;7.50;;;;;;;;;;2052386;28;20069;-90
2022/11/13 03:38:58;;;;;;;;;;;;;;;;;;2041985;29;20106;-91
2022/11/13 03:39:59;;;;;;;12.60;7.40;;;;;;;;;;2040755;29;20414;-91
2022/11/13 03:40:59;;;;;;;13.50;7.57;;;;;;;;;;2048613;29;20139;-92
2022/11/13 03:42:00;;;;;;;;;;;;;;;;;;2048562;28;20035;-91
2022/11/13 03:43:00;;;;;;;10.97;7.17;;;;;;;;;;2040000;29;19911;-92
2022/11/13 03:44:00;;;;;;;;;;;;;;;;;;2032983;29;20036;-92
2022/11/13 03:45:01;;;;;;;11.33;7.67;;;;;;;;;;2040911;29;19947;-92
2022/11/13 03:46:01;;;;;;;12.75;7.38;;;;;;;;;;2041755;29;20475;-90
2022/11/13 03:47:01;;;;;;;;;;;;;;;;;;2041112;29;20045;-89
2022/11/13 03:48:02;;;;;;;11.73;6.80;;;;;;;;;;2048230;29;19910;-90
2022/11/13 03:49:02;;;;;;;;;;;;;;;;;;2048707;29;20035;-90
2022/11/13 03:50:03;;;;;;;12.97;7.33;;;;;;;;;;2040247;29;19967;-90
2022/11/13 03:51:03;;;;;;;;;;;;;;;;;;2040808;29;20441;-90
2022/11/13 03:52:04;;;;;;;11.70;7.30;;;;;;;;;;2041051;29;20403;-89
2022/11/13 03:53:04;;;;;;;;;;;;;;;;;;2040800;29;20468;-89
2022/11/13 03:54:04;;;;;;;13.77;7.93;;;;;;;;;;2040814;29;19910;-89
2022/11/13 03:55:05;;;;;;;14.80;7.43;;;;;;;;;;2043395;29;20035;-89
2022/11/13 03:56:06;;;;;;;11.93;6.95;;;;;;;;;;2042510;29;20031;-90
2022/11/13 03:57:06;;;;;;;12.43;7.88;;;;;;;;;;2052903;29;20023;-90
2022/11/13 03:58:06;;;;;;;15.88;7.75;;;;;;;;;;2056107;29;20439;-90
2022/11/13 03:59:07;;;;;;;;;;;;;;;;;;2048010;29;20091;-90
2022/11/13 04:00:08;;;;;;;13.75;7.78;;;;;;;;;;2046085;29;19910;-89
2022/11/13 04:01:09;;;;;;;12.48;7.55;;;;;;;;;;2043483;29;20051;-89
2022/11/13 04:02:09;;;;;;;;;;;;;;;;;;2041407;29;20460;-90
2022/11/13 04:03:10;;;;;;;11.00;7.10;;;;;;;;;;2040368;29;19930;-91
2022/11/13 04:04:10;;;;;;;13.95;7.78;;;;;;;;;;2048435;29;20031;-92
2022/11/13 04:05:11;;;;;;;;;;;;;;;;;;2048701;29;20114;-91
2022/11/13 04:06:13;;;;;;;12.07;7.20;;;;;;;;;;2048449;29;19911;-92
2022/11/13 04:07:13;;;;;;;12.60;7.43;;;;;;;;;;2048341;29;20027;-91
2022/11/13 04:08:14;;;;;;;;;;;;;;;;;;2040685;29;20438;-91
2022/11/13 04:09:15;;;;;;;16.17;8.15;;;;;;;;;;2032438;29;20037;-91
2022/11/13 04:10:16;;;;;;;;;;;;;;;;;;2040853;29;20023;-91
2022/11/13 04:11:17;;;;;;;;;;;;;;;;;;2040638;29;19921;-91
2022/11/13 04:12:17;;;;;;;14.40;8.47;;;;;;;;;;2033046;29;19946;-91
2022/11/13 04:13:17;;;;;;;;;;;;;;;;;;2048767;29;20077;-91
2022/11/13 04:14:18;;;;;;;14.48;8.20;;;;;;;;;;2047974;29;19914;-90
2022/11/13 04:15:18;;;;;;;14.98;8.45;;;;;;;;;;2040142;29;20182;-90
2022/11/13 04:16:19;;;;;;;;;;;;;;;;;;2032665;29;20028;-91
2022/11/13 04:17:19;;;;;;;15.82;8.23;;;;;;;;;;2032375;29;20668;-91
2022/11/13 04:18:19;;;;;;;14.88;8.38;;;;;;;;;;2040015;29;20038;-91
2022/11/13 04:19:20;;;;;;;;;;;;;;;;;;2048418;29;20030;-90
2022/11/13 04:20:20;;;;;;;16.45;10.48;;;;;;;;;;2040152;29;19929;-91
2022/11/13 04:21:20;;;;;;;;;;;;;;;;;;2040724;29;20031;-91
2022/11/13 04:22:21;;;;;;;19.83;9.20;;;;;;;;;;2039929;29;19933;-92
2022/11/13 04:23:21;;;;;;;;;;;;;;;;;;2040428;29;20160;-91
2022/11/13 04:24:21;;;;;;;19.40;9.40;;;;;;;;;;2032164;29;19911;-91
2022/11/13 04:25:22;;;;;;;;;;;;;;;;;;2040624;29;20032;-92
2022/11/13 04:26:22;;;;;;;17.90;9.15;;;;;;;;;;2040063;29;20251;-92
2022/11/13 04:27:33;;;;;;;16.84;9.50;;;;;;;;;;2012550;29;10217873;-90
2022/11/13 04:28:34;;;;;;;15.48;9.52;;;;;;;;;;2033334;29;20288;-91
2022/11/13 04:29:34;;;;;;;;;;;;;;;;;;2032587;29;20032;-91
2022/11/13 04:30:34;;;;;;;15.23;9.30;;;;;;;;;;2039983;29;19962;-92
2022/11/13 04:31:44;;;;;;;;;;;;;;;;;;2010893;29;10145152;-91
2022/11/13 04:32:44;;;;;;;15.15;8.60;;;;;;;;;;2047966;29;19910;-92
2022/11/13 04:33:46;;;;;;;15.13;9.93;;;;;;;;;;2047912;29;20047;-88
2022/11/13 04:34:46;;;;;;;17.60;9.88;;;;;;;;;;2047832;29;20038;-93
2022/11/13 04:35:47;;;;;;;;;;;;;;;;;;2040221;29;20031;-90
2022/11/13 04:36:47;;;;;;;15.60;8.67;;;;;;;;;;2040008;29;19959;-91
2022/11/13 04:37:48;;;;;;;16.12;9.53;;;;;;;;;;1703301;29;10086581;-90
2022/11/13 04:38:48;;;;;;;;;;;;;;;;;;2040380;29;20302;-90
2022/11/13 04:39:48;;;;;;;16.10;9.07;;;;;;;;;;1693076;29;10000981;-90
2022/11/13 04:42:47;;;;;;;19.23;9.50;;;;;;;;;;2039901;29;20076;-91
2022/11/13 04:43:32;;;;;;;18.52;10.18;;;;;;;;;;2040622;29;20047;-91
2022/11/13 04:44:32;;;;;;;;;;;;;;;;;;2048259;29;20031;-91
2022/11/13 04:45:33;;;;;;;15.57;8.30;;;;;;;;;;2040044;29;20418;-90
2022/11/13 04:46:34;;;;;;;14.93;8.25;;;;;;;;;;2040089;29;20110;-90
2022/11/13 04:47:34;;;;;;;;;;;;;;;;;;2040286;29;20028;-90
2022/11/13 04:48:34;;;;;;;13.65;8.68;;;;;;;;;;2040004;29;19918;-91
2022/11/13 04:49:35;;;;;;;15.40;8.45;;;;;;;;;;2039643;29;20024;-91
2022/11/13 04:50:35;;;;;;;12.50;8.18;;;;;;;;;;2047442;29;20026;-90
2022/11/13 04:51:36;;;;;;;17.67;9.63;;;;;;;;;;2039637;29;20059;-90
2022/11/13 04:52:37;;;;;;;14.85;8.45;;;;;;;;;;2040533;29;20538;-90
2022/11/13 04:53:37;;;;;;;17.15;8.55;;;;;;;;;;2038797;29;20035;-91
2022/11/13 04:54:37;;;;;;;;;;;;;;;;;;2031804;29;20455;-90
2022/11/13 04:55:38;;;;;;;14.95;9.07;;;;;;;;;;2039208;29;20318;-91
2022/11/13 04:56:38;;;;;;;13.43;8.70;;;;;;;;;;2047287;29;20086;-91
2022/11/13 04:57:39;;;;;;;;;;;;;;;;;;2048360;29;20059;-90
2022/11/13 04:58:39;;;;;;;12.60;8.30;;;;;;;;;;2040413;29;19915;-90
2022/11/13 04:59:39;;;;;;;;;;;;;;;;;;2040097;29;20038;-90
2022/11/13 05:00:40;;;;;;;14.15;8.07;;;;;;;;;;2039542;29;19962;-90
2022/11/13 05:01:40;;;;;;;;;;;;;;;;;;2040942;29;20028;-91
2022/11/13 05:02:41;;;;;;;13.67;7.73;;;;;;;;;;2047745;29;20247;-91
2022/11/13 05:03:41;;;;;;;;;;;;;;;;;;2040063;29;20031;-91
2022/11/13 05:04:41;;;;;;;10.57;7.47;;;;;;;;;;2031915;29;19924;-90
2022/11/13 05:05:42;;;;;;;;;;;;;;;;;;2032371;29;20415;-90
2022/11/13 05:06:42;;;;;;;13.48;8.00;;;;;;;;;;2039733;29;19950;-90
2022/11/13 05:07:42;;;;;;;17.08;8.70;;;;;;;;;;2039799;29;20095;-90
2022/11/13 05:08:43;;;;;;;11.82;7.65;;;;;;;;;;2039677;29;20507;-91
2022/11/13 05:09:43;;;;;;;15.15;8.52;;;;;;;;;;2040465;29;20600;-90
2022/11/13 05:10:44;;;;;;;13.80;8.40;;;;;;;;;;1699428;29;10002478;-91
2022/11/13 05:11:44;;;;;;;15.27;8.75;;;;;;;;;;2032069;29;20059;-91
2022/11/13 05:12:45;;;;;;;18.23;9.13;;;;;;;;;;1695553;29;10109809;-90
2022/11/13 05:13:45;;;;;;;;;;;;;;;;;;2039951;29;20058;-90
2022/11/13 05:14:45;;;;;;;14.60;9.00;;;;;;;;;;2039776;29;20029;-91
2022/11/13 05:15:46;;;;;;;17.02;10.48;;;;;;;;;;2040346;29;20035;-91
2022/11/13 05:16:48;;;;;;;13.73;8.65;;;;;;;;;;2040421;29;20091;-91
2022/11/13 05:17:49;;;;;;;13.55;8.13;;;;;;;;;;1699378;29;10001587;-90
2022/11/13 05:18:49;;;;;;;14.27;8.35;;;;;;;;;;2039797;29;20051;-90
2022/11/13 05:19:49;;;;;;;;;;;;;;;;;;2032244;29;20039;-90
2022/11/13 05:20:50;;;;;;;15.83;8.60;;;;;;;;;;2039586;29;19976;-90
2022/11/13 05:21:50;;;;;;;16.13;8.80;;;;;;;;;;2047661;29;20148;-91
2022/11/13 05:22:50;;;;;;;;;;;;;;;;;;2047887;29;20031;-91
2022/11/13 05:23:51;;;;;;;20.27;8.13;;;;;;;;;;2039414;29;19914;-90
2022/11/13 05:24:51;;;;;;;14.52;8.65;;;;;;;;;;2039351;29;20032;-90
2022/11/13 05:25:52;;;;;;;;;;;;;;;;;;2039471;29;20027;-90
2022/11/13 05:26:52;;;;;;;13.40;7.97;;;;;;;;;;2046989;29;20250;-90
2022/11/13 05:27:52;;;;;;;14.18;9.05;;;;;;;;;;2039499;29;20059;-91
2022/11/13 05:28:55;;;;;;;;;;;;;;;;;;2040118;29;20027;-91
2022/11/13 05:29:55;;;;;;;12.80;8.38;;;;;;;;;;2040477;29;19970;-91
2022/11/13 05:31:22;;;;;;;;;;;;;;;;;;2040947;29;20028;-91
2022/11/13 05:32:22;;;;;;;17.10;9.52;;;;;;;;;;2039338;29;19910;-93
2022/11/13 05:33:23;;;;;;;;;;;;;;;;;;2040110;29;20019;-93
2022/11/13 05:34:23;;;;;;;18.13;9.52;;;;;;;;;;2039890;29;19995;-91
2022/11/13 05:35:23;;;;;;;15.10;8.95;;;;;;;;;;2047911;29;20057;-93
2022/11/13 05:36:24;;;;;;;;;;;;;;;;;;2040300;29;20020;-93
2022/11/13 05:37:28;;;;;;;16.95;9.68;;;;;;;;;;1758291;29;10284925;-92
2022/11/13 05:38:28;;;;;;;17.33;10.07;;;;;;;;;;2040415;29;20234;-92
2022/11/13 05:39:29;;;;;;;;;;;;;;;;;;2040410;29;20055;-91
2022/11/13 05:40:29;;;;;;;16.87;10.10;;;;;;;;;;2031814;29;19919;-93
2022/11/13 05:41:30;;;;;;;17.98;9.73;;;;;;;;;;2039958;29;20023;-92
2022/11/13 05:42:30;;;;;;;16.88;9.77;;;;;;;;;;2039858;29;20023;-92
2022/11/13 05:43:31;;;;;;;18.60;10.45;;;;;;;;;;2039935;29;20016;-92
2022/11/13 05:44:32;;;;;;;16.73;9.88;;;;;;;;;;2031908;29;20031;-93
2022/11/13 05:45:32;;;;;;;;;;;;;;;;;;2032240;29;20498;-91
2022/11/13 05:46:32;;;;;;;17.77;10.27;;;;;;;;;;2039617;29;19918;-93
2022/11/13 05:47:33;;;;;;;14.93;10.25;;;;;;;;;;2039777;29;20028;-93
2022/11/13 05:48:33;;;;;;;;;;;;;;;;;;2040209;29;20031;-93
2022/11/13 05:49:34;;;;;;;16.40;10.70;;;;;;;;;;2031821;29;20019;-93
2022/11/13 05:50:34;;;;;;;;;;;;;;;;;;2040446;29;20051;-93
2022/11/13 05:51:35;;;;;;;15.75;9.82;;;;;;;;;;1692508;29;10198859;-93
2022/11/13 05:52:35;;;;;;;16.77;10.88;;;;;;;;;;2039799;29;20039;-92
2022/11/13 05:53:36;;;;;;;;;;;;;;;;;;2048034;29;20043;-92
2022/11/13 05:54:36;;;;;;;19.07;10.00;;;;;;;;;;2032051;29;19969;-92
2022/11/13 05:55:36;;;;;;;17.23;10.48;;;;;;;;;;2032009;29;20032;-92
2022/11/13 05:56:37;;;;;;;;;;;;;;;;;;2032145;29;20025;-92
2022/11/13 05:57:37;;;;;;;18.30;9.77;;;;;;;;;;2031892;29;20524;-92
2022/11/13 05:58:39;;;;;;;14.10;9.68;;;;;;;;;;2039781;29;20108;-93
2022/11/13 05:59:39;;;;;;;19.70;10.52;;;;;;;;;;2039778;29;20459;-92
2022/11/13 06:00:40;;;;;;;;;;;;;;;;;;2032374;29;20063;-91
2022/11/13 06:01:41;;;;;;;14.67;9.53;;;;;;;;;;2039934;29;20040;-92
2022/11/13 06:02:41;;;;;;;;;;;;;;;;;;2040288;29;20032;-91
2022/11/13 06:03:43;;;;;;;15.73;9.70;;;;;;;;;;2039642;29;19910;-91
2022/11/13 06:04:43;;;;;;;18.52;10.10;;;;;;;;;;2039707;29;20027;-90
2022/11/13 06:05:43;;;;;;;;;;;;;;;;;;2041232;29;20135;-92
2022/11/13 06:06:44;;;;;;;15.98;8.90;;;;;;;;;;2049359;29;19918;-92
2022/11/13 06:07:48;;;;;;;15.63;9.75;;;;;;;;;;2041463;29;20052;-91
2022/11/13 06:08:50;;;;;;;17.17;9.63;;;;;;;;;;2033952;29;20035;-92
2022/11/13 06:09:50;;;;;;;13.63;8.73;;;;;;;;;;2031760;29;20067;-91
2022/11/13 06:10:50;;;;;;;;;;;;;;;;;;2041739;29;20046;-91
2022/11/13 06:11:51;;;;;;;15.57;8.57;;;;;;;;;;2041215;29;20243;-90
2022/11/13 06:12:53;;;;;;;;;;;;;;;;;;2049408;29;20609;-91
2022/11/13 06:13:54;;;;;;;12.65;9.15;;;;;;;;;;2049234;29;19918;-91
2022/11/13 06:14:55;;;;;;;17.80;8.80;;;;;;;;;;2041251;29;20039;-91
2022/11/13 06:16:03;;;;;;;;;;;;;;;;;;2041593;29;20020;-90
2022/11/13 06:17:03;;;;;;;15.13;8.43;;;;;;;;;;2041232;29;19918;-92
2022/11/13 06:18:04;;;;;;;;;;;;;;;;;;2041677;29;20027;-91
2022/11/13 06:19:11;;;;;;;12.67;8.53;;;;;;;;;;2049522;28;19912;-91
2022/11/13 06:20:12;;;;;;;14.18;8.38;;;;;;;;;;2052348;28;20085;-91
2022/11/13 06:21:14;;;;;;;;;;;;;;;;;;2059696;28;20023;-91
2022/11/13 06:22:14;;;;;;;12.93;7.00;;;;;;;;;;2052308;28;19926;-92